ANA1213 RJFF-ROAH
Flight info
| Callsign | ANA1213 |
|---|---|
| Flight time | 1h 14m |
| Altitude | 34000 |
| Route | YAMGA VEMRA Y506 HKC Y45 ONC Y525 IHEYA |
| Aircraft | A320/M-SDE3FGHIRWY/LB1 |
Departure
| Time | 2026-04-17 08:09 |
|---|---|
| Airport | Fukuoka Airport (RJFF) |
Arrival
| Time | 2026-04-17 09:24 |
|---|---|
| Airport | Naha International Airport (ROAH) |
| Time | Latitude | Longitude | Altitude | Speed | Heading |
|---|---|---|---|---|---|
| 2026-04-17 07:51 | 33.60015 | 130.44532 | 27 ft | 0 kts | 60° |
| 2026-04-17 08:02 | 33.60014 | 130.44531 | 25 ft | 10 kts | 60° |
| 2026-04-17 08:03 | 33.60007 | 130.44515 | 26 ft | 13 kts | 60° |
| 2026-04-17 08:03 | 33.59997 | 130.44494 | 31 ft | 24 kts | 60° |
| 2026-04-17 08:03 | 33.59987 | 130.44473 | 31 ft | 22 kts | 60° |
| 2026-04-17 08:03 | 33.59978 | 130.44453 | 30 ft | 6 kts | 60° |
| 2026-04-17 08:04 | 33.59976 | 130.44450 | 30 ft | 46 kts | 60° |
| 2026-04-17 08:06 | 33.60011 | 130.44453 | 23 ft | 9 kts | 320° |
| 2026-04-17 08:06 | 33.60007 | 130.44392 | 23 ft | 8 kts | 231° |
| 2026-04-17 08:06 | 33.59933 | 130.44379 | 23 ft | 13 kts | 162° |
| 2026-04-17 08:06 | 33.59847 | 130.44371 | 23 ft | 12 kts | 191° |
| 2026-04-17 08:07 | 33.59765 | 130.44345 | 25 ft | 12 kts | 197° |
| 2026-04-17 08:07 | 33.59703 | 130.44328 | 27 ft | 0 kts | 187° |
| 2026-04-17 08:07 | 33.59692 | 130.44328 | 27 ft | 4 kts | 175° |
| 2026-04-17 08:07 | 33.59673 | 130.44336 | 27 ft | 4 kts | 155° |
| 2026-04-17 08:08 | 33.59649 | 130.44352 | 27 ft | 0 kts | 149° |
| 2026-04-17 08:08 | 33.59636 | 130.44361 | 27 ft | 11 kts | 152° |
| 2026-04-17 08:08 | 33.59361 | 130.44547 | 27 ft | 86 kts | 150° |
| 2026-04-17 08:08 | 33.58622 | 130.45048 | 38 ft | 154 kts | 150° |
| 2026-04-17 08:09 | 33.57611 | 130.45735 | 592 ft | 168 kts | 149° |
| 2026-04-17 08:09 | 33.56589 | 130.46417 | 1476 ft | 168 kts | 154° |
| 2026-04-17 08:09 | 33.55548 | 130.47069 | 2193 ft | 174 kts | 154° |
| 2026-04-17 08:09 | 33.54393 | 130.47755 | 2470 ft | 196 kts | 156° |
| 2026-04-17 08:10 | 33.53086 | 130.48536 | 2733 ft | 223 kts | 154° |
| 2026-04-17 08:10 | 33.51636 | 130.49445 | 3214 ft | 245 kts | 153° |
| 2026-04-17 08:10 | 33.50083 | 130.50465 | 3786 ft | 262 kts | 152° |
| 2026-04-17 08:10 | 33.48473 | 130.51569 | 4482 ft | 277 kts | 151° |
| 2026-04-17 08:11 | 33.46775 | 130.52774 | 5258 ft | 287 kts | 152° |
| 2026-04-17 08:11 | 33.45054 | 130.53867 | 6590 ft | 269 kts | 155° |
| 2026-04-17 08:11 | 33.43389 | 130.54841 | 7626 ft | 267 kts | 156° |
| 2026-04-17 08:11 | 33.41695 | 130.55814 | 8420 ft | 273 kts | 157° |
| 2026-04-17 08:12 | 33.39963 | 130.56821 | 9151 ft | 280 kts | 156° |
| 2026-04-17 08:12 | 33.38198 | 130.57869 | 9846 ft | 287 kts | 156° |
| 2026-04-17 08:12 | 33.37002 | 130.58590 | 10239 ft | 293 kts | 156° |
| 2026-04-17 08:12 | 33.34547 | 130.60087 | 10522 ft | 324 kts | 155° |
| 2026-04-17 08:13 | 33.32474 | 130.61364 | 10698 ft | 347 kts | 155° |
| 2026-04-17 08:13 | 33.30257 | 130.62735 | 10840 ft | 370 kts | 155° |
| 2026-04-17 08:13 | 33.27938 | 130.64176 | 11089 ft | 387 kts | 155° |
| 2026-04-17 08:14 | 33.23902 | 130.66692 | 12004 ft | 398 kts | 155° |
| 2026-04-17 08:14 | 33.21427 | 130.68232 | 12595 ft | 404 kts | 156° |
| 2026-04-17 08:14 | 33.18917 | 130.69788 | 13160 ft | 409 kts | 156° |
| 2026-04-17 08:14 | 33.16368 | 130.71364 | 13719 ft | 415 kts | 156° |
| 2026-04-17 08:15 | 33.13871 | 130.72875 | 14245 ft | 418 kts | 160° |
| 2026-04-17 08:15 | 33.11056 | 130.74066 | 14876 ft | 416 kts | 170° |
| 2026-04-17 08:15 | 33.08213 | 130.74641 | 15466 ft | 414 kts | 180° |
| 2026-04-17 08:15 | 33.05347 | 130.74632 | 16081 ft | 410 kts | 189° |
| 2026-04-17 08:16 | 33.02504 | 130.74283 | 16669 ft | 412 kts | 190° |
| 2026-04-17 08:16 | 32.99646 | 130.73925 | 17219 ft | 415 kts | 190° |
| 2026-04-17 08:16 | 32.96793 | 130.73568 | 17750 ft | 417 kts | 190° |
| 2026-04-17 08:16 | 32.93894 | 130.73207 | 18274 ft | 420 kts | 190° |
| 2026-04-17 08:17 | 32.90973 | 130.72845 | 18713 ft | 423 kts | 189° |
| 2026-04-17 08:17 | 32.88040 | 130.72485 | 19148 ft | 425 kts | 190° |
| 2026-04-17 08:17 | 32.85098 | 130.72129 | 19603 ft | 426 kts | 190° |
| 2026-04-17 08:17 | 32.82138 | 130.71770 | 20032 ft | 428 kts | 190° |
| 2026-04-17 08:18 | 32.79164 | 130.71407 | 20448 ft | 430 kts | 190° |
| 2026-04-17 08:18 | 32.76182 | 130.71043 | 20844 ft | 432 kts | 190° |
| 2026-04-17 08:18 | 32.73175 | 130.70679 | 21236 ft | 435 kts | 190° |
| 2026-04-17 08:18 | 32.70152 | 130.70314 | 21614 ft | 437 kts | 190° |
| 2026-04-17 08:19 | 32.67154 | 130.69952 | 21966 ft | 439 kts | 190° |
| 2026-04-17 08:19 | 32.64110 | 130.69587 | 22331 ft | 441 kts | 190° |
| 2026-04-17 08:19 | 32.61046 | 130.69221 | 22692 ft | 443 kts | 191° |
| 2026-04-17 08:19 | 32.57965 | 130.68852 | 23055 ft | 446 kts | 191° |
| 2026-04-17 08:20 | 32.54867 | 130.68479 | 23443 ft | 448 kts | 191° |
| 2026-04-17 08:20 | 32.51759 | 130.68102 | 23763 ft | 450 kts | 191° |
| 2026-04-17 08:20 | 32.48635 | 130.67721 | 24017 ft | 452 kts | 191° |
| 2026-04-17 08:20 | 32.45486 | 130.67339 | 24319 ft | 453 kts | 191° |
| 2026-04-17 08:21 | 32.42341 | 130.66956 | 24592 ft | 455 kts | 192° |
| 2026-04-17 08:21 | 32.39220 | 130.66575 | 24864 ft | 457 kts | 192° |
| 2026-04-17 08:21 | 32.36057 | 130.66190 | 25113 ft | 458 kts | 192° |
| 2026-04-17 08:21 | 32.32882 | 130.65807 | 25365 ft | 459 kts | 192° |
| 2026-04-17 08:22 | 32.29705 | 130.65427 | 25687 ft | 458 kts | 192° |
| 2026-04-17 08:22 | 32.26534 | 130.65051 | 26020 ft | 457 kts | 192° |
| 2026-04-17 08:22 | 32.23362 | 130.64676 | 26323 ft | 456 kts | 192° |
| 2026-04-17 08:22 | 32.20206 | 130.64302 | 26675 ft | 455 kts | 193° |
| 2026-04-17 08:23 | 32.17063 | 130.63931 | 26915 ft | 454 kts | 193° |
| 2026-04-17 08:23 | 32.13922 | 130.63556 | 27226 ft | 453 kts | 193° |
| 2026-04-17 08:23 | 32.10792 | 130.63178 | 27562 ft | 451 kts | 193° |
| 2026-04-17 08:23 | 32.07668 | 130.62800 | 27856 ft | 450 kts | 193° |
| 2026-04-17 08:24 | 32.04591 | 130.62429 | 28170 ft | 449 kts | 194° |
| 2026-04-17 08:24 | 32.01471 | 130.62056 | 28480 ft | 449 kts | 194° |
| 2026-04-17 08:24 | 31.98356 | 130.61688 | 28787 ft | 448 kts | 194° |
| 2026-04-17 08:24 | 31.95256 | 130.61321 | 29090 ft | 447 kts | 194° |
| 2026-04-17 08:25 | 31.92202 | 130.60956 | 29413 ft | 446 kts | 194° |
| 2026-04-17 08:25 | 31.89118 | 130.60588 | 29730 ft | 445 kts | 194° |
| 2026-04-17 08:25 | 31.86040 | 130.60225 | 30007 ft | 444 kts | 194° |
| 2026-04-17 08:26 | 31.79838 | 130.59486 | 30054 ft | 449 kts | 194° |
| 2026-04-17 08:26 | 31.73598 | 130.58750 | 30053 ft | 451 kts | 194° |
| 2026-04-17 08:27 | 31.67574 | 130.57338 | 30060 ft | 437 kts | 206° |
| 2026-04-17 08:27 | 31.61917 | 130.54765 | 30043 ft | 435 kts | 208° |
| 2026-04-17 08:28 | 31.56269 | 130.52199 | 30039 ft | 435 kts | 207° |
| 2026-04-17 08:28 | 31.50599 | 130.49702 | 30034 ft | 435 kts | 207° |
| 2026-04-17 08:29 | 31.44926 | 130.47240 | 30047 ft | 435 kts | 207° |
| 2026-04-17 08:29 | 31.39255 | 130.44761 | 30047 ft | 435 kts | 207° |
| 2026-04-17 08:30 | 31.33621 | 130.42284 | 30026 ft | 435 kts | 207° |
| 2026-04-17 08:30 | 31.27954 | 130.39801 | 30023 ft | 435 kts | 207° |
| 2026-04-17 08:31 | 31.22306 | 130.37238 | 30013 ft | 434 kts | 208° |
| 2026-04-17 08:31 | 31.16713 | 130.34565 | 30023 ft | 434 kts | 208° |
| 2026-04-17 08:32 | 31.11108 | 130.31889 | 30002 ft | 436 kts | 208° |
| 2026-04-17 08:32 | 31.05453 | 130.29236 | 30004 ft | 438 kts | 208° |
| 2026-04-17 08:33 | 30.99787 | 130.26603 | 30002 ft | 439 kts | 207° |
| 2026-04-17 08:33 | 30.94106 | 130.23958 | 30011 ft | 439 kts | 208° |
| 2026-04-17 08:34 | 30.88468 | 130.21333 | 30016 ft | 439 kts | 208° |
| 2026-04-17 08:34 | 30.82787 | 130.18690 | 30017 ft | 439 kts | 208° |
| 2026-04-17 08:35 | 30.77094 | 130.16048 | 29990 ft | 440 kts | 208° |
| 2026-04-17 08:35 | 30.71404 | 130.13408 | 29993 ft | 440 kts | 208° |
| 2026-04-17 08:36 | 30.65741 | 130.10778 | 29991 ft | 441 kts | 208° |
| 2026-04-17 08:36 | 30.60038 | 130.08135 | 29982 ft | 441 kts | 207° |
| 2026-04-17 08:37 | 30.54317 | 130.05505 | 29988 ft | 442 kts | 207° |
| 2026-04-17 08:37 | 30.48570 | 130.02924 | 30008 ft | 443 kts | 207° |
| 2026-04-17 08:38 | 30.42829 | 130.00358 | 30004 ft | 442 kts | 207° |
| 2026-04-17 08:38 | 30.37101 | 129.97786 | 29985 ft | 441 kts | 207° |
| 2026-04-17 08:39 | 30.31390 | 129.95253 | 29989 ft | 442 kts | 206° |
| 2026-04-17 08:39 | 30.25585 | 129.92842 | 29987 ft | 443 kts | 205° |
| 2026-04-17 08:40 | 30.19762 | 129.90476 | 29971 ft | 443 kts | 205° |
| 2026-04-17 08:40 | 30.13940 | 129.88080 | 29976 ft | 443 kts | 205° |
| 2026-04-17 08:41 | 30.08168 | 129.85675 | 29980 ft | 443 kts | 205° |
| 2026-04-17 08:41 | 30.02367 | 129.83270 | 29952 ft | 443 kts | 205° |
| 2026-04-17 08:42 | 29.96582 | 129.80807 | 29955 ft | 443 kts | 206° |
| 2026-04-17 08:42 | 29.90875 | 129.78145 | 29970 ft | 442 kts | 207° |
| 2026-04-17 08:43 | 29.85203 | 129.75458 | 29952 ft | 443 kts | 207° |
| 2026-04-17 08:43 | 29.79476 | 129.72801 | 29958 ft | 444 kts | 207° |
| 2026-04-17 08:44 | 29.73727 | 129.70164 | 29963 ft | 444 kts | 206° |
| 2026-04-17 08:44 | 29.67964 | 129.67533 | 29966 ft | 445 kts | 206° |
| 2026-04-17 08:45 | 29.62214 | 129.64904 | 29972 ft | 445 kts | 207° |
| 2026-04-17 08:45 | 29.56488 | 129.62282 | 29971 ft | 445 kts | 207° |
| 2026-04-17 08:46 | 29.50721 | 129.59639 | 29975 ft | 446 kts | 207° |
| 2026-04-17 08:46 | 29.44953 | 129.56996 | 29959 ft | 445 kts | 207° |
| 2026-04-17 08:47 | 29.39191 | 129.54371 | 29961 ft | 446 kts | 206° |
| 2026-04-17 08:47 | 29.33459 | 129.51764 | 29967 ft | 446 kts | 206° |
| 2026-04-17 08:48 | 29.27612 | 129.49283 | 29959 ft | 448 kts | 204° |
| 2026-04-17 08:48 | 29.21709 | 129.46947 | 29958 ft | 448 kts | 204° |
| 2026-04-17 08:49 | 29.15825 | 129.44607 | 29962 ft | 448 kts | 204° |
| 2026-04-17 08:49 | 29.09950 | 129.42227 | 29966 ft | 448 kts | 205° |
| 2026-04-17 08:50 | 29.04076 | 129.39819 | 29947 ft | 448 kts | 205° |
| 2026-04-17 08:50 | 28.98238 | 129.37434 | 29950 ft | 448 kts | 205° |
| 2026-04-17 08:51 | 28.92404 | 129.34935 | 29964 ft | 447 kts | 206° |
| 2026-04-17 08:51 | 28.86619 | 129.32345 | 29950 ft | 447 kts | 206° |
| 2026-04-17 08:52 | 28.80810 | 129.29753 | 29947 ft | 447 kts | 206° |
| 2026-04-17 08:52 | 28.74999 | 129.27207 | 29950 ft | 448 kts | 206° |
| 2026-04-17 08:53 | 28.69168 | 129.24669 | 29952 ft | 448 kts | 206° |
| 2026-04-17 08:53 | 28.63373 | 129.22144 | 29947 ft | 447 kts | 206° |
| 2026-04-17 08:54 | 28.57549 | 129.19603 | 29953 ft | 447 kts | 206° |
| 2026-04-17 08:54 | 28.51737 | 129.17071 | 29946 ft | 447 kts | 206° |
| 2026-04-17 08:55 | 28.45916 | 129.14531 | 29935 ft | 447 kts | 205° |
| 2026-04-17 08:55 | 28.40102 | 129.11999 | 29945 ft | 448 kts | 206° |
| 2026-04-17 08:56 | 28.34301 | 129.09492 | 29948 ft | 448 kts | 206° |
| 2026-04-17 08:56 | 28.28473 | 129.06972 | 29927 ft | 448 kts | 206° |
| 2026-04-17 08:57 | 28.22647 | 129.04449 | 29929 ft | 448 kts | 205° |
| 2026-04-17 08:57 | 28.16844 | 129.01942 | 29935 ft | 449 kts | 205° |
| 2026-04-17 08:58 | 28.11021 | 128.99374 | 29936 ft | 449 kts | 206° |
| 2026-04-17 08:58 | 28.05245 | 128.96703 | 29923 ft | 448 kts | 207° |
| 2026-04-17 08:59 | 27.99465 | 128.94021 | 29928 ft | 449 kts | 207° |
| 2026-04-17 08:59 | 27.93667 | 128.91365 | 29928 ft | 449 kts | 206° |
| 2026-04-17 09:00 | 27.88834 | 128.89178 | 29917 ft | 450 kts | 206° |
| 2026-04-17 09:00 | 27.82976 | 128.86659 | 29927 ft | 451 kts | 205° |
| 2026-04-17 09:01 | 27.77100 | 128.84206 | 29930 ft | 451 kts | 205° |
| 2026-04-17 09:01 | 27.71205 | 128.81734 | 29934 ft | 451 kts | 205° |
| 2026-04-17 09:02 | 27.65324 | 128.79241 | 29937 ft | 452 kts | 205° |
| 2026-04-17 09:02 | 27.59441 | 128.76734 | 29940 ft | 452 kts | 205° |
| 2026-04-17 09:03 | 27.53552 | 128.74232 | 29941 ft | 452 kts | 205° |
| 2026-04-17 09:03 | 27.47736 | 128.71687 | 29932 ft | 449 kts | 210° |
| 2026-04-17 09:04 | 27.42731 | 128.67682 | 29937 ft | 438 kts | 229° |
| 2026-04-17 09:04 | 27.39223 | 128.62159 | 29946 ft | 434 kts | 242° |
| 2026-04-17 09:05 | 27.36156 | 128.56303 | 29941 ft | 434 kts | 241° |
| 2026-04-17 09:05 | 27.33069 | 128.50463 | 29946 ft | 434 kts | 241° |
| 2026-04-17 09:06 | 27.29979 | 128.44624 | 29963 ft | 432 kts | 241° |
| 2026-04-17 09:06 | 27.28461 | 128.41755 | 29499 ft | 431 kts | 241° |
| 2026-04-17 09:06 | 27.26920 | 128.38833 | 28001 ft | 439 kts | 241° |
| 2026-04-17 09:06 | 27.25343 | 128.35839 | 26506 ft | 447 kts | 241° |
| 2026-04-17 09:07 | 27.23744 | 128.32804 | 25053 ft | 454 kts | 241° |
| 2026-04-17 09:07 | 27.22126 | 128.29740 | 23549 ft | 455 kts | 240° |
| 2026-04-17 09:07 | 27.20519 | 128.26710 | 21984 ft | 447 kts | 240° |
| 2026-04-17 09:07 | 27.18959 | 128.23773 | 21220 ft | 426 kts | 240° |
| 2026-04-17 09:08 | 27.17473 | 128.20979 | 20510 ft | 411 kts | 240° |
| 2026-04-17 09:08 | 27.16011 | 128.18226 | 19777 ft | 409 kts | 240° |
| 2026-04-17 09:08 | 27.14560 | 128.15495 | 19055 ft | 406 kts | 240° |
| 2026-04-17 09:08 | 27.13124 | 128.12796 | 18349 ft | 408 kts | 240° |
| 2026-04-17 09:09 | 27.11663 | 128.10053 | 17508 ft | 409 kts | 240° |
| 2026-04-17 09:09 | 27.10205 | 128.07318 | 16780 ft | 407 kts | 240° |
| 2026-04-17 09:09 | 27.09562 | 128.06114 | 16444 ft | 406 kts | 240° |
| 2026-04-17 09:09 | 27.08520 | 128.04158 | 15944 ft | 405 kts | 240° |
| 2026-04-17 09:10 | 27.05636 | 127.98748 | 14579 ft | 401 kts | 241° |
| 2026-04-17 09:10 | 27.04220 | 127.96095 | 13941 ft | 399 kts | 241° |
| 2026-04-17 09:10 | 27.02775 | 127.93443 | 13279 ft | 397 kts | 238° |
| 2026-04-17 09:11 | 27.01024 | 127.91067 | 12714 ft | 394 kts | 227° |
| 2026-04-17 09:11 | 26.98910 | 127.89121 | 12091 ft | 394 kts | 217° |
| 2026-04-17 09:11 | 26.96511 | 127.87635 | 11491 ft | 393 kts | 210° |
| 2026-04-17 09:11 | 26.94111 | 127.86285 | 11295 ft | 377 kts | 210° |
| 2026-04-17 09:12 | 26.91815 | 127.84988 | 11176 ft | 361 kts | 210° |
| 2026-04-17 09:12 | 26.89620 | 127.83744 | 11052 ft | 345 kts | 211° |
| 2026-04-17 09:12 | 26.87524 | 127.82553 | 10939 ft | 332 kts | 211° |
| 2026-04-17 09:12 | 26.85501 | 127.81402 | 10815 ft | 320 kts | 211° |
| 2026-04-17 09:13 | 26.83552 | 127.80294 | 10690 ft | 308 kts | 211° |
| 2026-04-17 09:13 | 26.81676 | 127.79229 | 10539 ft | 298 kts | 211° |
| 2026-04-17 09:13 | 26.79868 | 127.78202 | 10373 ft | 292 kts | 212° |
| 2026-04-17 09:13 | 26.78049 | 127.77167 | 10260 ft | 292 kts | 212° |
| 2026-04-17 09:14 | 26.76236 | 127.76134 | 10135 ft | 292 kts | 212° |
| 2026-04-17 09:14 | 26.74427 | 127.75105 | 9986 ft | 292 kts | 212° |
| 2026-04-17 09:14 | 26.72602 | 127.74066 | 9491 ft | 295 kts | 211° |
| 2026-04-17 09:14 | 26.70782 | 127.73035 | 9258 ft | 291 kts | 211° |
| 2026-04-17 09:15 | 26.68976 | 127.72015 | 8855 ft | 290 kts | 211° |
| 2026-04-17 09:15 | 26.67181 | 127.71000 | 8473 ft | 288 kts | 211° |
| 2026-04-17 09:15 | 26.65424 | 127.70006 | 8059 ft | 286 kts | 210° |
| 2026-04-17 09:15 | 26.63656 | 127.69005 | 7669 ft | 284 kts | 210° |
| 2026-04-17 09:16 | 26.61894 | 127.68008 | 7301 ft | 282 kts | 210° |
| 2026-04-17 09:16 | 26.60151 | 127.67021 | 6957 ft | 280 kts | 210° |
| 2026-04-17 09:16 | 26.58433 | 127.66047 | 6502 ft | 276 kts | 210° |
| 2026-04-17 09:16 | 26.56731 | 127.65083 | 5921 ft | 274 kts | 210° |
| 2026-04-17 09:17 | 26.55032 | 127.64121 | 5391 ft | 272 kts | 209° |
| 2026-04-17 09:17 | 26.53348 | 127.63170 | 4873 ft | 270 kts | 209° |
| 2026-04-17 09:17 | 26.51674 | 127.62225 | 4361 ft | 267 kts | 209° |
| 2026-04-17 09:17 | 26.49952 | 127.61445 | 3932 ft | 268 kts | 194° |
| 2026-04-17 09:18 | 26.48112 | 127.61276 | 3599 ft | 265 kts | 178° |
| 2026-04-17 09:18 | 26.46285 | 127.61419 | 3085 ft | 261 kts | 176° |
| 2026-04-17 09:18 | 26.44483 | 127.61562 | 2438 ft | 258 kts | 176° |
| 2026-04-17 09:18 | 26.42705 | 127.61704 | 1901 ft | 255 kts | 176° |
| 2026-04-17 09:19 | 26.40951 | 127.61842 | 1605 ft | 248 kts | 176° |
| 2026-04-17 09:19 | 26.39299 | 127.61971 | 1528 ft | 233 kts | 176° |
| 2026-04-17 09:19 | 26.37721 | 127.62094 | 1439 ft | 221 kts | 176° |
| 2026-04-17 09:19 | 26.36217 | 127.62211 | 1348 ft | 214 kts | 176° |
| 2026-04-17 09:20 | 26.34742 | 127.62325 | 1256 ft | 211 kts | 176° |
| 2026-04-17 09:20 | 26.33298 | 127.62433 | 1228 ft | 201 kts | 176° |
| 2026-04-17 09:20 | 26.31928 | 127.62507 | 1206 ft | 193 kts | 181° |
| 2026-04-17 09:20 | 26.30634 | 127.62479 | 1231 ft | 178 kts | 179° |
| 2026-04-17 09:21 | 26.29445 | 127.62522 | 1212 ft | 162 kts | 177° |
| 2026-04-17 09:21 | 26.28363 | 127.62603 | 1111 ft | 150 kts | 170° |
| 2026-04-17 09:21 | 26.27374 | 127.62662 | 1145 ft | 140 kts | 168° |
| 2026-04-17 09:21 | 26.26422 | 127.62830 | 1103 ft | 138 kts | 159° |
| 2026-04-17 09:22 | 26.25472 | 127.63001 | 918 ft | 139 kts | 172° |
| 2026-04-17 09:22 | 26.24508 | 127.62982 | 802 ft | 137 kts | 172° |
| 2026-04-17 09:22 | 26.23559 | 127.63070 | 582 ft | 137 kts | 165° |
| 2026-04-17 09:22 | 26.22611 | 127.63133 | 375 ft | 138 kts | 170° |
| 2026-04-17 09:23 | 26.21655 | 127.63176 | 273 ft | 136 kts | 168° |
| 2026-04-17 09:23 | 26.20702 | 127.63215 | 147 ft | 136 kts | 167° |
| 2026-04-17 09:23 | 26.19779 | 127.63261 | 28 ft | 129 kts | 166° |
| 2026-04-17 09:23 | 26.19076 | 127.63399 | 16 ft | 77 kts | 171° |
| 2026-04-17 09:24 | 26.18698 | 127.63380 | 16 ft | 28 kts | 185° |
| 2026-04-17 09:24 | 26.18539 | 127.63360 | 17 ft | 21 kts | 165° |
| 2026-04-17 09:24 | 26.18536 | 127.63361 | 17 ft | 21 kts | 165° |
| 2026-04-17 09:24 | 26.18435 | 127.63404 | 18 ft | 20 kts | 148° |
| 2026-04-17 09:25 | 26.18362 | 127.63506 | 17 ft | 13 kts | 70° |
| 2026-04-17 09:25 | 26.18447 | 127.63520 | 17 ft | 16 kts | 355° |
| 2026-04-17 09:25 | 26.18653 | 127.63502 | 17 ft | 43 kts | 358° |
| 2026-04-17 09:25 | 26.19022 | 127.63484 | 17 ft | 62 kts | 357° |
| 2026-04-17 09:26 | 26.19459 | 127.63472 | 17 ft | 62 kts | 0° |
| 2026-04-17 09:26 | 26.19875 | 127.63462 | 17 ft | 58 kts | 355° |
| 2026-04-17 09:26 | 26.20243 | 127.63436 | 17 ft | 33 kts | 357° |
| 2026-04-17 09:26 | 26.20303 | 127.63484 | 17 ft | 11 kts | 90° |
| 2026-04-17 09:27 | 26.20303 | 127.63637 | 17 ft | 31 kts | 90° |
| 2026-04-17 09:27 | 26.20305 | 127.63952 | 17 ft | 46 kts | 83° |
| 2026-04-17 09:27 | 26.20332 | 127.64296 | 17 ft | 43 kts | 88° |
| 2026-04-17 09:27 | 26.20343 | 127.64601 | 18 ft | 30 kts | 85° |
| 2026-04-17 09:28 | 26.20463 | 127.64725 | 17 ft | 25 kts | 32° |
| 2026-04-17 09:28 | 26.20617 | 127.64746 | 17 ft | 21 kts | 359° |
| 2026-04-17 09:28 | 26.20753 | 127.64739 | 17 ft | 13 kts | 355° |
| 2026-04-17 09:28 | 26.20840 | 127.64733 | 17 ft | 12 kts | 0° |
| 2026-04-17 09:29 | 26.20893 | 127.64774 | 19 ft | 8 kts | 54° |
| 2026-04-17 09:29 | 26.20914 | 127.64816 | 20 ft | 5 kts | 76° |
| 2026-04-17 09:29 | 26.20921 | 127.64851 | 20 ft | 9 kts | 76° |
| 2026-04-17 09:29 | 26.20914 | 127.64924 | 21 ft | 10 kts | 119° |
| 2026-04-17 09:30 | 26.20884 | 127.64981 | 22 ft | 0 kts | 120° |